Flight Track Log - Related Links

Times and Time Zones

All times are in EDT time to prevent confusion due to time zone crossing. See the VH-VWO flight status page for this flight to view local times or setup timezone preferences in your user account.


Time Position Orientation Groundspeed Altitude Reporting Facility
EDT Latitude Longitude Course Direction KTS MPH feet Rate Location/Type
Thu 10:23:36 AM -31.5267 118.2375 268° West 18,000  Level Aus ATC (Calculated)
Thu 10:24:32 AM -31.5296 118.1649 269° West 18,000 -2,617 Level Aus ATC (Calculated)
Thu 10:26:44 AM -31.5301 118.1032 268° West 142 163 9,800 -2,063 Descending Aus ATC (RADAR)
Thu 10:27:44 AM -31.5316 118.0582 268° West 136 157 11,400 1,523 Climbing Aus ATC (RADAR)
Thu 10:28:54 AM -31.5336 118.0085 267° West 132 152 13,100 1,477 Climbing Aus ATC (RADAR)
Thu 10:29:54 AM -31.5353 117.9647 267° West 136 157 14,600 1,342 Climbing Aus ATC (RADAR)
Thu 10:30:10 AM -31.5370 117.9590 267° West 135 155 14,800 1,477 Climbing FlightAware ADS-B
Thu 10:30:59 AM -31.5370 117.9165 267° West 138 159 16,200 706 Climbing Aus ATC (RADAR)
Thu 10:31:01 AM -31.5390 117.9220 267° West 138 159 15,400 -1,297 Descending FlightAware ADS-B
Thu 10:31:36 AM -31.5400 117.8990 267° West 138 159 15,400 538 Level FlightAware ADS-B
Thu 10:32:19 AM -31.5400 117.8550 270° West 177 204 16,100 538 Climbing FlightAware ADS-B
Thu 10:32:54 AM -31.5430 117.8010 266° West 219 252 16,100  Level FlightAware ADS-B
Thu 10:33:47 AM -31.5450 117.7380 268° West 224 258 16,100  Level FlightAware ADS-B
Thu 10:34:40 AM -31.5470 117.6810 268° West 226 260 16,100  Level FlightAware ADS-B
Thu 10:34:59 AM -31.5490 117.6490 266° West 223 257 16,100  Level FlightAware ADS-B
Thu 10:35:10 AM -31.5550 117.6370 240° Southwest 227 261 16,100  Level FlightAware ADS-B
Thu 10:35:46 AM -31.5750 117.5990 238° Southwest 229 264 16,100 176 Level FlightAware ADS-B
Thu 10:36:18 AM -31.5915 117.5621 238° Southwest 224 258 16,300  Climbing Aus ATC (RADAR)
Thu 10:36:22 AM -31.5930 117.5610 238° Southwest 228 262 16,100 -273 Descending FlightAware ADS-B
Thu 10:37:02 AM -31.6150 117.5170 240° Southwest 228 262 16,100  Level FlightAware ADS-B
Thu 10:37:39 AM -31.6330 117.4780 242° Southwest 228 262 16,100  Level FlightAware ADS-B
Thu 10:38:22 AM -31.6550 117.4330 240° Southwest 230 265 16,100  Level FlightAware ADS-B
Thu 10:38:53 AM -31.6720 117.3970 241° Southwest 231 266 16,100 182 Level FlightAware ADS-B
Thu 10:39:28 AM -31.6903 117.3566 241° Southwest 226 260 16,300  Climbing Aus ATC (RADAR)
Thu 10:39:37 AM -31.6950 117.3490 241° Southwest 229 264 16,100 -286 Descending FlightAware ADS-B
Thu 10:40:10 AM -31.7120 117.3140 240° Southwest 229 264 16,100  Level FlightAware ADS-B
Thu 10:40:46 AM -31.7310 117.2730 241° Southwest 229 264 16,100 122 Level FlightAware ADS-B
Thu 10:41:48 AM -31.7626 117.2048 241° Southwest 224 258 16,300  Climbing Aus ATC (RADAR)
Thu 10:41:57 AM -31.7670 117.1970 241° Southwest 223 257 16,100  Descending FlightAware ADS-B
Thu 10:42:52 AM -31.7962 117.1347 241° Southwest 225 259 16,300  Climbing Aus ATC (RADAR)
Thu 10:43:09 AM -31.8040 117.1190 241° Southwest 223 257 16,100 -245 Descending FlightAware ADS-B
Thu 10:43:41 AM -31.8210 117.0840 240° Southwest 224 258 16,100  Level FlightAware ADS-B
Thu 10:44:25 AM -31.8420 117.0390 241° Southwest 228 262 16,100 158 Level FlightAware ADS-B
Thu 10:44:57 AM -31.8603 116.9994 241° Southwest 225 259 16,300  Climbing Aus ATC (RADAR)
Thu 10:44:58 AM -31.8610 117.0000 241° Southwest 223 257 16,100  Descending FlightAware ADS-B
Thu 10:46:02 AM -31.8934 116.9289 241° Southwest 225 259 16,300  Climbing Aus ATC (RADAR)
Thu 10:46:03 AM -31.8930 116.9290 241° Southwest 221 254 16,100 -1,317 Descending FlightAware ADS-B
Thu 10:46:43 AM -31.8930 116.8810 270° West 220 253 15,400 -1,200 Descending FlightAware ADS-B
Thu 10:47:18 AM -31.8950 116.8390 267° West 226 260 14,600 -1,457 Descending FlightAware ADS-B
Thu 10:47:53 AM -31.8970 116.7960 267° West 222 255 13,700 -1,286 Descending FlightAware ADS-B
Thu 10:48:28 AM -31.9000 116.7540 265° West 219 252 13,100 -1,114 Descending FlightAware ADS-B
Thu 10:49:03 AM -31.9020 116.7130 267° West 219 252 12,400 -1,200 Descending FlightAware ADS-B
Thu 10:49:43 AM -31.9050 116.6650 266° West 219 252 11,600 -1,114 Descending FlightAware ADS-B
Thu 10:50:13 AM -31.9070 116.6300 266° West 220 253 11,100 -882 Descending FlightAware ADS-B
Thu 10:50:17 AM -31.9071 116.6241 266° West 211 243 11,100 -1,200 Level Aus ATC (RADAR)
Thu 10:50:48 AM -31.9100 116.5870 265° West 224 258 10,400 -1,279 Descending FlightAware ADS-B
Thu 10:51:18 AM -31.9120 116.5500 265° West 226 260 9,800 -882 Descending FlightAware ADS-B
Thu 10:51:22 AM -31.9117 116.5451 265° West 217 250 9,900 -1,200 Climbing Aus ATC (RADAR)
Thu 10:51:38 AM -31.9130 116.5250 267° West 227 261 9,400 -1,463 Descending FlightAware ADS-B
Thu 10:52:03 AM -31.9150 116.4950 266° West 227 261 8,900 -1,200 Descending FlightAware ADS-B
Thu 10:52:18 AM -31.9160 116.4770 266° West 227 261 8,600 -1,200 Descending FlightAware ADS-B
Thu 10:52:43 AM -31.9180 116.4460 266° West 226 260 8,100 -1,050 Descending FlightAware ADS-B
Thu 10:52:58 AM -31.9190 116.4290 266° West 225 259 7,900 -1,200 Descending FlightAware ADS-B
Thu 10:53:18 AM -31.9200 116.4040 267° West 225 259 7,400 -1,200 Descending FlightAware ADS-B
Thu 10:53:38 AM -31.9210 116.3790 267° West 224 258 7,100 -857 Descending FlightAware ADS-B
Thu 10:53:53 AM -31.9220 116.3610 266° West 219 252 6,900 -857 Descending FlightAware ADS-B
Thu 10:54:13 AM -31.9240 116.3380 264° West 215 247 6,600 -1,050 Descending FlightAware ADS-B
Thu 10:54:33 AM -31.9250 116.3140 267° West 213 245 6,200 -900 Descending FlightAware ADS-B
Thu 10:54:53 AM -31.9270 116.2910 264° West 210 242 6,000 -857 Descending FlightAware ADS-B
Thu 10:55:08 AM -31.9260 116.2730 274° West 208 239 5,700 -1,029 Descending FlightAware ADS-B
Thu 10:55:28 AM -31.9230 116.2510 279° West 207 238 5,400 -900 Descending FlightAware ADS-B
Thu 10:55:48 AM -31.9200 116.2280 279° West 205 236 5,100 -900 Descending FlightAware ADS-B
Thu 10:56:08 AM -31.9180 116.2070 276° West 202 232 4,800 -811 Descending FlightAware ADS-B
Thu 10:56:25 AM -31.9160 116.1900 278° West 201 231 4,600 -1,050 Descending FlightAware ADS-B
Thu 10:56:48 AM -31.9130 116.1630 277° West 200 230 4,100 -1,116 Descending FlightAware ADS-B
Thu 10:57:08 AM -31.9100 116.1410 279° West 199 229 3,800 -900 Descending FlightAware ADS-B
Thu 10:57:28 AM -31.9070 116.1200 280° West 199 229 3,500 -1,050 Descending FlightAware ADS-B
Thu 10:57:48 AM -31.9040 116.0990 280° West 199 229 3,100 -900 Descending FlightAware ADS-B
Thu 10:58:08 AM -31.9000 116.0790 283° West 194 223 2,900 -474 Descending FlightAware ADS-B
Thu 10:58:26 AM -31.8970 116.0630 282° West 187 215 2,800 -171 Descending FlightAware ADS-B
Thu 10:58:43 AM -31.8940 116.0440 281° West 179 206 2,800 -649 Level FlightAware ADS-B
Thu 10:59:03 AM -31.8900 116.0240 283° West 188 216 2,400 -533 Descending FlightAware ADS-B
Thu 10:59:28 AM -31.8860 116.0000 281° West 182 209 2,400  Level FlightAware ADS-B
Thu 10:59:48 AM -31.8830 115.9800 280° West 176 203 2,400  Level FlightAware ADS-B
Thu 11:00:03 AM -31.8810 115.9660 280° West 174 200 2,400  Level FlightAware ADS-B
Thu 11:00:08 AM -31.8810 115.9610 270° West 174 200 2,400 -600 Level FlightAware ADS-B
Thu 11:00:33 AM -31.8840 115.9400 260° West 183 211 2,100 -667 Descending FlightAware ADS-B
Thu 11:00:53 AM -31.8870 115.9170 261° West 190 219 1,900 -343 Descending FlightAware ADS-B
Thu 11:01:08 AM -31.8890 115.9040 260° West 184 212 1,900  Level FlightAware ADS-B
Thu 11:01:13 AM -31.8920 115.8980 240° Southwest 179 206 1,900  Level FlightAware ADS-B
Thu 11:01:18 AM -31.8940 115.8950 232° Southwest 177 204 1,900  Level FlightAware ADS-B
Thu 11:01:29 AM -31.9000 115.8890 220° Southwest 181 208 1,900  Level FlightAware ADS-B
Thu 11:01:48 AM -31.9150 115.8770 214° Southwest 179 206 1,900  Level FlightAware ADS-B
Thu 11:02:08 AM -31.9300 115.8660 212° Southwest 178 205 1,900  Level FlightAware ADS-B
Thu 11:02:30 AM -31.9430 115.8560 213° Southwest 176 203 1,900  Level FlightAware ADS-B
Thu 11:02:43 AM -31.9540 115.8480 212° Southwest 175 201 1,900  Level FlightAware ADS-B
Thu 11:03:00 AM -31.9640 115.8420 207° Southwest 169 194 1,900  Level FlightAware ADS-B
Thu 11:03:03 AM -31.9690 115.8420 180° South 180 207 1,900  Level FlightAware ADS-B
Thu 11:03:28 AM -31.9900 115.8450 173° South 181 208 1,900 -133 Level FlightAware ADS-B
Thu 11:03:48 AM -32.0060 115.8470 174° South 177 204 1,800 -600 Descending FlightAware ADS-B
Thu 11:04:08 AM -32.0230 115.8490 174° South 192 221 1,500 -686 Descending FlightAware ADS-B
Thu 11:04:23 AM -32.0380 115.8500 177° South 191 220 1,400 -171 Descending FlightAware ADS-B
Thu 11:04:43 AM -32.0540 115.8550 165° South 180 207 1,400  Level FlightAware ADS-B
Thu 11:05:03 AM -32.0690 115.8640 153° Southeast 182 209 1,400 -450 Level FlightAware ADS-B
Thu 11:05:23 AM -32.0850 115.8740 152° Southeast 181 208 1,100 -667 Descending FlightAware ADS-B
Thu 11:05:48 AM -32.1030 115.8860 151° Southeast 175 201 900 -267 Descending FlightAware ADS-B
Thu 11:06:08 AM -32.1170 115.8940 154° Southeast 167 192 900  Level FlightAware ADS-B
Thu 11:06:33 AM -32.1280 115.8800 227° Southwest 140 161 900  Level FlightAware ADS-B
Thu 11:06:53 AM -32.1290 115.8670 265° West 123 142 900 -128 Level FlightAware ADS-B
Thu 11:07:20 AM -32.1240 115.8540 294° West 107 123 800 -400 Descending FlightAware ADS-B
Thu 11:07:38 AM -32.1150 115.8520 349° North 87 100 600 -522 Descending FlightAware ADS-B
Thu 11:07:43 AM -32.1130 115.8530 23° Northeast 89 102 600  Level FlightAware ADS-B
Thu 11:07:48 AM -32.1120 115.8550 59° Northeast 95 109 600 -600 Level FlightAware ADS-B
Thu 11:08:13 AM -32.1050 115.8650 50° Northeast 90 104 300 -625 Descending FlightAware ADS-B
Thu 11:08:36 AM -32.1010 115.8730 59° Northeast 88 101 100 -235 Descending FlightAware ADS-B
Thu 11:09:04 AM -32.0960 115.8820 57° Northeast 88 101 100  Level FlightAware ADS-B
Thu 11:11:00 AM -32.1027 115.8867 201° Southwest  Level FlightAware Approximate
Thu 11:12:00 AM -32.0975 115.8811 201° Southwest  Level Estimated
Thu 11:13:00 AM -32.1027 115.8867 201° Southwest  Level FlightAware Approximate
Thu 11:14:00 AM -32.0975 115.8811 201° Southwest  Level Estimated
Thu 11:15:00 AM -32.1027 115.8867 201° Southwest  Level FlightAware Approximate
Thu 11:16:00 AM -32.0975 115.8811 201° Southwest  Level Estimated
Thu 11:17:00 AM -32.1027 115.8867 201° Southwest  Level FlightAware Approximate
Thu 11:18:00 AM -32.0975 115.8811 201° Southwest  Level Estimated
Thu 11:19:00 AM -32.1027 115.8867 201° Southwest  Level FlightAware Approximate
Thu 11:20:00 AM -32.0975 115.8811 201° Southwest  Level Estimated

Login

Don't have an account? Register now (free) for customized features, flight alerts, and more!